createdAt,value
2018-02-06T00:01:16.037Z,1.56
2018-02-06T00:03:43.597Z,1.51
2018-02-06T00:06:11.202Z,1.49
2018-02-06T00:08:38.793Z,1.47
2018-02-06T00:11:06.544Z,1.41
2018-02-06T00:13:34.128Z,1.38
2018-02-06T00:16:01.680Z,1.41
2018-02-06T00:18:29.231Z,1.36
2018-02-06T00:20:56.820Z,1.45
2018-02-06T00:23:24.372Z,1.47
2018-02-06T00:25:51.945Z,1.50
2018-02-06T00:28:19.555Z,1.43
2018-02-06T00:30:47.121Z,1.36
2018-02-06T00:33:14.701Z,1.50
2018-02-06T00:35:42.310Z,1.53
2018-02-06T00:38:09.875Z,1.60
2018-02-06T00:40:37.432Z,1.63
2018-02-06T00:43:05.054Z,1.68
2018-02-06T00:45:32.626Z,1.67
2018-02-06T00:48:00.206Z,1.62
2018-02-06T00:50:27.813Z,1.57
2018-02-06T00:52:55.400Z,1.61
2018-02-06T00:55:23.044Z,1.57
2018-02-06T00:57:50.631Z,1.54
2018-02-06T01:00:18.190Z,1.60
2018-02-06T01:02:45.763Z,1.59
2018-02-06T01:05:13.367Z,1.58
2018-02-06T01:07:40.934Z,1.48
2018-02-06T01:10:08.516Z,1.44
2018-02-06T01:12:36.110Z,1.35
2018-02-06T01:15:03.688Z,1.28
2018-02-06T01:17:31.285Z,1.23
2018-02-06T01:19:58.894Z,1.17
2018-02-06T01:22:26.464Z,1.06
2018-02-06T01:24:54.041Z,0.93
2018-02-06T01:27:21.660Z,0.84
2018-02-06T01:29:49.205Z,0.87
2018-02-06T01:32:16.940Z,0.79
2018-02-06T01:34:44.625Z,0.72
2018-02-06T01:37:12.271Z,0.62
2018-02-06T01:39:39.854Z,0.56
2018-02-06T01:42:07.532Z,0.52
2018-02-06T01:44:35.094Z,0.44
2018-02-06T01:47:02.766Z,0.36
2018-02-06T01:49:30.372Z,0.35
2018-02-06T01:51:57.945Z,0.28
2018-02-06T01:54:25.504Z,0.26
2018-02-06T01:56:53.106Z,0.17
2018-02-06T01:59:20.671Z,0.14
2018-02-06T02:01:48.230Z,0.06
2018-02-06T02:04:15.822Z,0.03
2018-02-06T02:06:43.382Z,0.04
2018-02-06T02:09:11.070Z,0.01
2018-02-06T02:11:38.692Z,-0.04
2018-02-06T02:14:06.277Z,-0.02
2018-02-06T02:16:33.884Z,-0.03
2018-02-06T02:19:01.531Z,-0.09
2018-02-06T02:21:29.093Z,-0.10
2018-02-06T02:23:56.817Z,-0.16
2018-02-06T02:26:24.418Z,-0.16
2018-02-06T02:28:52.000Z,-0.24
2018-02-06T02:31:19.592Z,-0.25
2018-02-06T02:33:47.233Z,-0.28
2018-02-06T02:36:14.816Z,-0.31
2018-02-06T02:38:42.393Z,-0.34
2018-02-06T02:41:10.008Z,-0.39
2018-02-06T04:39:14.589Z,0.29
2018-02-06T04:41:42.156Z,0.19
2018-02-06T04:44:09.748Z,0.12
2018-02-06T04:46:37.367Z,0.11
2018-02-06T04:49:05.313Z,0.10
2018-02-06T04:51:33.054Z,0.18
2018-02-06T04:54:00.654Z,0.27
2018-02-06T04:56:28.219Z,0.33
2018-02-06T04:58:55.771Z,0.33
2018-02-06T05:01:23.375Z,0.39
2018-02-06T05:03:50.935Z,0.45
2018-02-06T05:06:18.566Z,0.45
2018-02-06T05:08:46.180Z,0.47
2018-02-06T05:11:13.894Z,0.57
2018-02-06T05:13:41.454Z,0.64
2018-02-06T05:16:09.069Z,0.72
2018-02-06T05:18:36.623Z,0.69
2018-02-06T05:21:04.188Z,0.76
2018-02-06T05:23:31.795Z,0.78
2018-02-06T05:25:59.372Z,0.83
2018-02-06T05:28:26.956Z,0.86
2018-02-06T05:30:54.558Z,0.88
2018-02-06T05:33:22.235Z,0.98
2018-02-06T05:35:49.901Z,0.92
2018-02-06T05:38:17.570Z,0.79
2018-02-06T05:40:45.149Z,0.93
2018-02-06T05:43:12.722Z,0.94
2018-02-06T05:45:40.349Z,0.96
2018-02-06T05:48:07.923Z,0.96
2018-02-06T05:50:35.500Z,0.95
2018-02-06T05:53:03.118Z,0.82
2018-02-06T05:55:30.706Z,0.91
2018-02-06T05:57:58.452Z,0.99
2018-02-06T06:00:26.067Z,1.12
2018-02-06T06:02:53.656Z,1.14
2018-02-06T06:05:21.236Z,1.23
2018-02-06T06:07:48.837Z,1.27
2018-02-06T06:10:16.424Z,1.29
2018-02-06T06:12:44.017Z,1.36
2018-02-06T06:15:11.638Z,1.48
2018-02-06T06:17:39.203Z,1.52
2018-02-06T06:20:06.776Z,1.58
2018-02-06T06:22:34.377Z,1.73
2018-02-06T06:25:01.944Z,1.83
2018-02-06T06:27:29.524Z,1.60
2018-02-06T06:29:57.136Z,1.87
2018-02-06T06:32:24.906Z,2.21
2018-02-06T06:34:52.520Z,2.53
2018-02-06T06:37:20.132Z,2.72
2018-02-06T06:39:47.700Z,2.72
2018-02-06T06:42:15.271Z,2.74
2018-02-06T06:44:42.878Z,2.83
2018-02-06T06:47:10.438Z,3.34
2018-02-06T06:49:38.008Z,4.72
2018-02-06T06:52:05.853Z,5.57
2018-02-06T06:54:33.430Z,5.71
2018-02-06T06:57:01.165Z,5.70
2018-02-06T06:59:28.775Z,5.85
2018-02-06T07:01:56.387Z,6.33
2018-02-06T07:04:23.981Z,6.32
2018-02-06T07:06:51.581Z,6.71
2018-02-06T07:09:19.155Z,6.92
2018-02-06T07:11:46.728Z,7.73
2018-02-06T07:14:14.322Z,8.65
2018-02-06T07:16:41.895Z,8.59
2018-02-06T07:19:09.479Z,8.13
2018-02-06T07:21:37.103Z,7.66
2018-02-06T07:24:04.673Z,7.52
2018-02-06T07:26:32.270Z,7.32
2018-02-06T07:29:00.060Z,7.16
2018-02-06T07:31:27.657Z,6.92
2018-02-06T07:33:55.224Z,6.44
2018-02-06T07:36:23.771Z,6.40
2018-02-06T07:38:51.353Z,6.99
2018-02-06T07:41:18.980Z,7.24
2018-02-06T07:43:46.599Z,6.95
2018-02-06T07:46:14.186Z,6.83
2018-02-06T07:48:41.790Z,6.74
2018-02-06T07:51:09.422Z,6.55
2018-02-06T07:53:37.004Z,6.73
2018-02-06T07:56:04.591Z,6.06
2018-02-06T07:58:32.198Z,6.55
2018-02-06T08:00:59.762Z,7.38
2018-02-06T08:03:27.351Z,8.19
2018-02-06T08:05:55.014Z,8.81
2018-02-06T08:08:22.655Z,9.04
2018-02-06T08:10:50.270Z,9.62
2018-02-06T08:13:17.894Z,10.86
2018-02-06T08:15:45.494Z,11.34
2018-02-06T08:18:13.088Z,11.94
2018-02-06T08:20:40.714Z,11.86
2018-02-06T08:23:08.288Z,12.05
2018-02-06T08:25:35.941Z,12.08
2018-02-06T08:28:03.565Z,12.55
2018-02-06T08:30:31.133Z,13.37
2018-02-06T08:32:58.694Z,14.86
2018-02-06T08:35:26.299Z,15.03
2018-02-06T08:37:53.876Z,14.59
2018-02-06T08:40:21.470Z,15.21
2018-02-06T08:42:49.094Z,15.47
2018-02-06T08:45:16.667Z,15.90
2018-02-06T08:47:44.263Z,16.68
2018-02-06T08:50:11.878Z,16.57
2018-02-06T08:52:39.475Z,16.41
2018-02-06T08:55:07.089Z,16.89
2018-02-06T08:57:34.751Z,17.15
2018-02-06T09:00:02.335Z,17.25
2018-02-06T09:02:29.907Z,16.73
2018-02-06T09:04:57.539Z,17.22
2018-02-06T09:07:25.119Z,16.95
2018-02-06T09:09:52.690Z,17.07
2018-02-06T09:12:20.305Z,17.22
2018-02-06T09:14:47.887Z,17.73
2018-02-06T09:17:15.476Z,18.13
2018-02-06T09:19:43.177Z,18.92
2018-02-06T09:22:10.759Z,18.60
2018-02-06T09:24:38.346Z,18.27
2018-02-06T09:27:05.946Z,17.63
2018-02-06T09:29:33.513Z,18.26
2018-02-06T09:32:01.100Z,18.53
2018-02-06T09:34:28.730Z,18.84
2018-02-06T09:36:56.314Z,19.08
2018-02-06T09:39:24.788Z,18.92
2018-02-06T09:41:52.398Z,19.28
2018-02-06T09:44:19.978Z,19.29
2018-02-06T09:46:47.553Z,19.78
2018-02-06T09:49:15.229Z,20.44
2018-02-06T09:51:42.809Z,21.40
2018-02-06T09:54:10.388Z,21.79
2018-02-06T09:56:37.988Z,21.24
2018-02-06T09:59:05.567Z,21.35
2018-02-06T10:01:33.273Z,21.16
2018-02-06T10:04:00.930Z,21.12
2018-02-06T10:06:28.500Z,21.00
2018-02-06T10:08:56.074Z,21.44
2018-02-06T10:11:23.696Z,21.56
2018-02-06T10:13:51.374Z,21.31
2018-02-06T10:16:18.949Z,21.51
2018-02-06T10:18:46.545Z,22.27
2018-02-06T10:21:14.165Z,21.38
2018-02-06T10:23:41.730Z,22.18
2018-02-06T10:26:09.341Z,22.33
2018-02-06T10:28:36.916Z,22.27
2018-02-06T10:31:04.493Z,23.13
2018-02-06T10:33:32.098Z,24.14
2018-02-06T10:35:59.665Z,24.45
2018-02-06T10:38:27.227Z,24.43
2018-02-06T10:40:54.841Z,23.92
2018-02-06T10:43:22.401Z,24.06
2018-02-06T10:45:49.971Z,24.47
2018-02-06T10:48:17.623Z,24.71
2018-02-06T10:50:45.183Z,24.31
2018-02-06T10:53:12.910Z,23.78
2018-02-06T10:55:40.529Z,24.40
2018-02-06T10:58:08.164Z,23.58
2018-02-06T11:00:35.857Z,22.83
2018-02-06T11:03:03.451Z,23.63
2018-02-06T11:05:31.098Z,23.35
2018-02-06T11:07:58.661Z,24.23
2018-02-06T11:10:26.263Z,23.09
2018-02-06T11:12:53.892Z,23.04
2018-02-06T11:15:21.447Z,23.49
2018-02-06T11:17:49.042Z,23.10
2018-02-06T11:20:16.638Z,23.51
2018-02-06T11:22:44.192Z,24.29
2018-02-06T11:25:11.810Z,22.84
2018-02-06T11:27:39.379Z,21.96
2018-02-06T11:30:07.006Z,21.77
2018-02-06T11:32:34.653Z,22.60
2018-02-06T11:35:02.227Z,23.63
2018-02-06T11:37:29.788Z,22.97
2018-02-06T11:39:57.386Z,22.81
2018-02-06T11:42:25.031Z,22.42
2018-02-06T11:44:52.623Z,23.43
2018-02-06T11:47:20.239Z,24.25
2018-02-06T11:49:47.806Z,25.48
2018-02-06T11:52:15.384Z,25.15
2018-02-06T11:54:42.966Z,22.89
2018-02-06T11:57:10.533Z,21.92
2018-02-06T11:59:38.145Z,21.40
2018-02-06T12:02:05.746Z,21.24
2018-02-06T12:04:33.299Z,20.32
2018-02-06T12:07:00.864Z,20.00
2018-02-06T12:09:28.800Z,20.48
2018-02-06T12:11:56.359Z,19.84
2018-02-06T12:14:23.922Z,20.22
2018-02-06T12:16:51.534Z,19.78
2018-02-06T12:19:19.109Z,20.81
2018-02-06T12:21:46.681Z,21.08
2018-02-06T12:24:14.312Z,21.05
2018-02-06T12:26:41.919Z,20.45
2018-02-06T12:29:09.561Z,19.99
2018-02-06T12:31:37.257Z,19.73
2018-02-06T12:34:04.910Z,19.12
2018-02-06T12:36:32.479Z,19.12
2018-02-06T12:39:00.085Z,19.67
2018-02-06T12:41:27.770Z,19.16
2018-02-06T12:43:55.323Z,20.34
2018-02-06T12:46:22.911Z,20.89
2018-02-06T12:48:50.465Z,20.87
2018-02-06T12:51:18.032Z,20.48
2018-02-06T12:53:45.617Z,21.22
2018-02-06T12:56:13.207Z,22.16
2018-02-06T12:58:40.799Z,21.80
2018-02-06T13:01:08.380Z,21.69
2018-02-06T13:03:35.935Z,21.38
2018-02-06T13:06:03.507Z,20.34
2018-02-06T13:08:31.087Z,19.99
2018-02-06T13:10:59.508Z,20.83
2018-02-06T13:13:27.076Z,20.32
2018-02-06T13:15:54.679Z,20.72
2018-02-06T13:18:22.290Z,20.13
2018-02-06T13:20:49.836Z,18.96
2018-02-06T13:23:17.437Z,19.67
2018-02-06T13:25:45.278Z,19.75
2018-02-06T13:28:12.823Z,19.39
2018-02-06T13:30:40.429Z,19.74
2018-02-06T13:33:08.005Z,19.73
2018-02-06T13:35:35.564Z,20.37
2018-02-06T13:38:03.163Z,20.83
2018-02-06T13:40:30.731Z,21.39
2018-02-06T13:42:58.292Z,20.31
2018-02-06T13:45:25.905Z,19.95
2018-02-06T13:47:53.472Z,18.85
2018-02-06T13:50:21.046Z,18.90
2018-02-06T13:52:48.631Z,18.28
2018-02-06T13:55:16.242Z,18.33
2018-02-06T13:57:48.524Z,18.07
2018-02-06T14:00:16.146Z,17.77
2018-02-06T14:02:43.699Z,17.18
2018-02-06T14:05:11.270Z,16.28
2018-02-06T14:07:38.841Z,16.63
2018-02-06T14:10:06.390Z,16.02
2018-02-06T14:12:34.042Z,15.65
2018-02-06T14:15:01.644Z,14.82
2018-02-06T14:17:29.241Z,13.68
2018-02-06T14:19:56.875Z,13.43
2018-02-06T14:22:24.442Z,13.16
2018-02-06T14:24:51.993Z,13.10
2018-02-06T14:27:19.579Z,13.01
2018-02-06T14:29:47.223Z,12.99
2018-02-06T14:32:14.805Z,12.91
2018-02-06T14:34:42.519Z,12.79
2018-02-06T14:37:10.131Z,12.74
2018-02-06T14:39:37.717Z,12.63
2018-02-06T14:42:05.339Z,12.47
2018-02-06T14:44:32.911Z,12.43
2018-02-06T14:47:00.476Z,12.25
2018-02-06T14:49:28.095Z,12.27
2018-02-06T14:51:55.650Z,12.26
2018-02-06T14:54:23.244Z,12.14
2018-02-06T14:56:50.943Z,12.12
2018-02-06T14:59:18.496Z,12.05
2018-02-06T15:01:46.066Z,11.95
2018-02-06T15:04:13.759Z,11.93
2018-02-06T15:06:41.349Z,11.80
2018-02-06T15:09:08.920Z,11.72
2018-02-06T15:11:36.525Z,11.67
2018-02-06T15:14:04.129Z,11.56
2018-02-06T15:16:31.753Z,11.53
2018-02-06T15:18:59.350Z,11.37
2018-02-06T15:21:26.930Z,11.26
2018-02-06T15:23:54.521Z,11.29
2018-02-06T15:26:22.186Z,11.21
2018-02-06T15:28:49.892Z,11.14
2018-02-06T15:31:17.471Z,11.07
2018-02-06T15:33:45.081Z,10.97
2018-02-06T15:36:12.849Z,10.81
2018-02-06T15:38:40.421Z,10.66
2018-02-06T15:41:08.105Z,10.49
2018-02-06T15:43:35.687Z,10.44
2018-02-06T15:46:03.299Z,10.24
2018-02-06T15:48:30.901Z,10.15
2018-02-06T15:50:58.485Z,10.04
2018-02-06T15:53:26.068Z,9.86
2018-02-06T15:55:53.654Z,9.86
2018-02-06T15:58:21.206Z,9.76
2018-02-06T16:00:49.476Z,9.76
2018-02-06T16:03:17.072Z,9.75
2018-02-06T16:05:44.659Z,9.68
2018-02-06T16:08:12.249Z,9.65
2018-02-06T16:10:39.869Z,9.51
2018-02-06T16:13:07.428Z,9.55
2018-02-06T16:15:35.189Z,9.46
2018-02-06T16:18:02.929Z,9.39
2018-02-06T16:20:30.487Z,9.34
2018-02-06T16:22:58.141Z,9.23
2018-02-06T16:25:25.889Z,9.18
2018-02-06T16:27:53.461Z,9.07
2018-02-06T16:30:21.049Z,9.12
2018-02-06T16:32:48.655Z,9.15
2018-02-06T16:35:16.228Z,9.18
2018-02-06T16:37:43.810Z,9.07
2018-02-06T16:40:11.463Z,9.03
2018-02-06T16:42:39.026Z,9.05
2018-02-06T16:45:06.588Z,9.05
2018-02-06T16:47:34.200Z,9.03
2018-02-06T16:50:01.775Z,8.94
2018-02-06T16:52:29.345Z,8.89
2018-02-06T16:54:56.942Z,8.94
2018-02-06T16:57:24.510Z,8.83
2018-02-06T16:59:52.086Z,8.85
2018-02-06T17:02:31.262Z,8.82
2018-02-06T17:04:58.824Z,8.84
2018-02-06T17:07:26.389Z,8.79
2018-02-06T17:09:53.991Z,8.66
2018-02-06T17:12:21.707Z,8.68
2018-02-06T17:14:49.264Z,8.52
2018-02-06T17:17:16.853Z,8.50
2018-02-06T17:19:44.430Z,8.54
2018-02-06T17:22:12.029Z,8.58
2018-02-06T17:24:39.605Z,8.52
2018-02-06T17:27:07.170Z,8.50
2018-02-06T17:29:34.734Z,8.50
2018-02-06T17:32:02.376Z,8.48
2018-02-06T17:34:29.935Z,8.46
2018-02-06T17:36:57.545Z,8.41
2018-02-06T17:39:25.173Z,8.43
2018-02-06T17:41:52.736Z,8.36
2018-02-06T17:44:20.311Z,8.29
2018-02-06T17:46:47.929Z,8.17
2018-02-06T17:49:15.480Z,8.18
2018-02-06T17:51:43.075Z,8.05
2018-02-06T17:54:10.679Z,8.25
2018-02-06T17:56:38.234Z,8.23
2018-02-06T17:59:05.783Z,8.10
2018-02-06T18:01:33.392Z,7.94
2018-02-06T18:04:00.942Z,7.87
2018-02-06T18:06:28.589Z,7.92
2018-02-06T18:08:56.206Z,7.99
2018-02-06T18:11:23.751Z,8.14
2018-02-06T18:13:51.310Z,8.22
2018-02-06T18:16:18.907Z,8.16
2018-02-06T18:18:46.552Z,8.09
2018-02-06T18:21:14.124Z,7.93
2018-02-06T18:23:41.735Z,7.86
2018-02-06T18:26:09.285Z,7.91
2018-02-06T18:28:36.867Z,7.88
2018-02-06T18:31:04.464Z,8.09
2018-02-06T18:33:32.036Z,8.05
2018-02-06T18:35:59.611Z,7.96
2018-02-06T18:38:27.248Z,7.91
2018-02-06T18:40:54.922Z,7.84
2018-02-06T18:43:22.514Z,7.77
2018-02-06T18:45:50.140Z,7.90
2018-02-06T18:48:17.727Z,7.93
2018-02-06T18:50:45.290Z,7.77
2018-02-06T18:53:12.899Z,7.60
2018-02-06T18:55:40.480Z,7.56
2018-02-06T18:58:08.085Z,7.58
2018-02-06T19:00:35.690Z,7.54
2018-02-06T19:03:03.269Z,7.66
2018-02-06T19:05:30.906Z,7.85
2018-02-06T19:07:58.631Z,7.99
2018-02-06T19:10:26.229Z,8.12
2018-02-06T19:12:53.804Z,8.17
2018-02-06T19:15:21.435Z,8.31
2018-02-06T19:17:49.042Z,8.28
2018-02-06T19:20:16.673Z,8.47
2018-02-06T19:22:44.724Z,8.33
2018-02-06T19:25:12.391Z,8.40
2018-02-06T19:27:39.950Z,8.28
2018-02-06T19:30:07.582Z,8.26
2018-02-06T19:32:35.162Z,8.20
2018-02-06T19:35:02.757Z,8.23
2018-02-06T19:37:30.333Z,8.16
2018-02-06T19:39:57.962Z,8.25
2018-02-06T19:42:25.532Z,8.22
2018-02-06T19:44:53.166Z,8.25
2018-02-06T19:47:20.753Z,8.12
2018-02-06T19:49:48.375Z,8.23
2018-02-06T19:52:15.974Z,8.18
2018-02-06T19:54:43.559Z,8.17
2018-02-06T19:57:11.109Z,8.18
2018-02-06T19:59:38.694Z,8.22
2018-02-06T20:02:06.243Z,8.25
2018-02-06T20:04:33.793Z,8.39
2018-02-06T20:07:01.375Z,8.42
2018-02-06T20:09:28.947Z,8.35
2018-02-06T20:11:56.499Z,8.29
2018-02-06T20:14:24.077Z,8.20
2018-02-06T20:16:51.632Z,8.30
2018-02-06T20:19:19.196Z,8.23
2018-02-06T20:21:46.803Z,8.24
2018-02-06T20:24:14.374Z,8.17
2018-02-06T20:26:41.937Z,8.24
2018-02-06T20:29:09.552Z,8.30
2018-02-06T20:31:37.122Z,8.27
2018-02-06T20:34:04.696Z,8.21
2018-02-06T20:36:32.293Z,8.32
2018-02-06T20:38:59.858Z,8.40
2018-02-06T20:41:27.417Z,8.31
2018-02-06T20:43:55.123Z,8.35
2018-02-06T20:46:22.715Z,8.33
2018-02-06T20:48:50.280Z,8.36
2018-02-06T20:51:17.872Z,8.35
2018-02-06T20:53:45.450Z,8.39
2018-02-06T20:56:13.952Z,8.42
2018-02-06T20:58:41.556Z,8.29
2018-02-06T21:01:09.170Z,8.33
2018-02-06T21:03:36.774Z,8.35
2018-02-06T21:06:04.493Z,8.18
2018-02-06T21:08:32.685Z,8.22
2018-02-06T21:11:01.745Z,8.21
2018-02-06T21:13:30.973Z,8.21
2018-02-06T21:16:00.669Z,8.20
2018-02-06T21:18:29.499Z,8.18
2018-02-06T21:20:57.202Z,8.05
2018-02-06T21:23:24.765Z,8.07
2018-02-06T21:25:52.339Z,8.06
2018-02-06T21:28:19.943Z,8.05
2018-02-06T21:30:47.500Z,8.05
2018-02-06T21:33:15.056Z,7.95
2018-02-06T21:35:42.641Z,7.93
2018-02-06T21:38:10.212Z,7.93
2018-02-06T21:40:37.794Z,7.95
2018-02-06T21:43:05.441Z,8.00
2018-02-06T21:45:33.006Z,7.98
2018-02-06T21:48:00.580Z,7.82
2018-02-06T21:50:28.175Z,7.78
2018-02-06T21:52:55.739Z,7.82
2018-02-06T21:55:23.302Z,7.84
2018-02-06T21:57:50.905Z,7.86
2018-02-06T22:00:18.468Z,7.88
2018-02-06T22:02:46.045Z,7.93
2018-02-06T22:05:13.721Z,8.06
2018-02-06T22:07:41.282Z,7.98
2018-02-06T22:10:08.824Z,7.96
2018-02-06T22:12:36.421Z,7.92
2018-02-06T22:15:04.000Z,8.04
2018-02-06T22:17:31.550Z,8.05
2018-02-06T22:19:59.138Z,8.07
2018-02-06T22:22:26.687Z,8.08
2018-02-06T22:24:54.240Z,8.01
2018-02-06T22:27:21.854Z,7.93
2018-02-06T22:29:49.411Z,7.88
2018-02-06T22:32:16.986Z,7.89
2018-02-06T22:34:44.590Z,7.99
2018-02-06T22:37:12.226Z,7.94
2018-02-06T22:39:39.861Z,7.91
2018-02-06T22:42:07.678Z,7.92
2018-02-06T22:44:35.240Z,7.85
2018-02-06T22:47:02.800Z,7.87
2018-02-06T22:49:30.389Z,7.86
2018-02-06T22:51:57.933Z,7.88
2018-02-06T22:54:25.496Z,7.99
2018-02-06T22:56:53.083Z,8.03
2018-02-06T22:59:20.652Z,7.99
2018-02-06T23:01:48.210Z,8.03
2018-02-06T23:04:15.845Z,8.05
2018-02-06T23:06:43.430Z,8.02
2018-02-06T23:09:11.031Z,7.96
2018-02-06T23:11:38.626Z,7.99
2018-02-06T23:14:06.208Z,8.03
2018-02-06T23:16:33.765Z,8.00
2018-02-06T23:19:01.367Z,8.08
2018-02-06T23:21:28.934Z,8.02
2018-02-06T23:23:56.514Z,7.92
2018-02-06T23:26:24.123Z,7.94
2018-02-06T23:28:51.688Z,7.93
2018-02-06T23:31:19.255Z,7.96
2018-02-06T23:33:46.924Z,7.94
2018-02-06T23:36:14.486Z,7.91
2018-02-06T23:38:42.058Z,7.84
2018-02-06T23:41:09.664Z,7.77
2018-02-06T23:43:37.256Z,7.83
2018-02-06T23:46:04.809Z,7.78
2018-02-06T23:48:32.441Z,7.84
2018-02-06T23:51:00.015Z,7.72
2018-02-06T23:53:27.590Z,7.75
2018-02-06T23:55:55.205Z,7.73
2018-02-06T23:58:22.772Z,7.74
